sensor_id;sensor_type;location;lat;lon;timestamp;P1;durP1;ratioP1;P2;durP2;ratioP2
71777;SDS011;59609;52.430;4.668;2022-08-19T00:01:26;15.35;;;8.65;;
71777;SDS011;59609;52.430;4.668;2022-08-19T00:03:54;14.90;;;9.18;;
71777;SDS011;59609;52.430;4.668;2022-08-19T00:06:20;17.63;;;10.50;;
71777;SDS011;59609;52.430;4.668;2022-08-19T00:08:45;18.08;;;10.65;;
71777;SDS011;59609;52.430;4.668;2022-08-19T00:11:11;16.65;;;10.13;;
71777;SDS011;59609;52.430;4.668;2022-08-19T00:13:36;16.65;;;10.32;;
71777;SDS011;59609;52.430;4.668;2022-08-19T00:16:02;15.15;;;9.75;;
71777;SDS011;59609;52.430;4.668;2022-08-19T00:18:28;15.95;;;10.13;;
71777;SDS011;59609;52.430;4.668;2022-08-19T00:20:54;16.35;;;9.95;;
71777;SDS011;59609;52.430;4.668;2022-08-19T00:23:19;20.20;;;10.90;;
71777;SDS011;59609;52.430;4.668;2022-08-19T00:25:45;15.63;;;10.80;;
71777;SDS011;59609;52.430;4.668;2022-08-19T00:28:10;15.30;;;9.68;;
71777;SDS011;59609;52.430;4.668;2022-08-19T00:30:36;14.68;;;9.45;;
71777;SDS011;59609;52.430;4.668;2022-08-19T00:33:02;13.13;;;9.43;;
71777;SDS011;59609;52.430;4.668;2022-08-19T00:35:27;16.75;;;10.05;;
71777;SDS011;59609;52.430;4.668;2022-08-19T00:37:53;17.38;;;9.75;;
71777;SDS011;59609;52.430;4.668;2022-08-19T00:40:18;16.67;;;10.68;;
71777;SDS011;59609;52.430;4.668;2022-08-19T00:45:13;16.93;;;10.33;;
71777;SDS011;59609;52.430;4.668;2022-08-19T00:47:42;15.48;;;9.52;;
71777;SDS011;59609;52.430;4.668;2022-08-19T00:50:08;13.98;;;9.75;;
71777;SDS011;59609;52.430;4.668;2022-08-19T00:52:38;18.80;;;11.02;;
71777;SDS011;59609;52.430;4.668;2022-08-19T00:55:10;16.40;;;10.40;;
71777;SDS011;59609;52.430;4.668;2022-08-19T00:57:39;18.35;;;11.80;;
71777;SDS011;59609;52.430;4.668;2022-08-19T01:00:10;19.50;;;11.57;;
71777;SDS011;59609;52.430;4.668;2022-08-19T01:02:39;19.00;;;11.40;;
71777;SDS011;59609;52.430;4.668;2022-08-19T01:05:07;18.60;;;12.25;;
71777;SDS011;59609;52.430;4.668;2022-08-19T01:07:34;18.73;;;11.00;;
71777;SDS011;59609;52.430;4.668;2022-08-19T01:10:03;17.50;;;11.75;;
71777;SDS011;59609;52.430;4.668;2022-08-19T01:12:30;22.42;;;12.82;;
71777;SDS011;59609;52.430;4.668;2022-08-19T01:14:55;20.10;;;11.40;;
71777;SDS011;59609;52.430;4.668;2022-08-19T01:17:22;17.48;;;10.98;;
71777;SDS011;59609;52.430;4.668;2022-08-19T01:19:47;18.08;;;11.57;;
71777;SDS011;59609;52.430;4.668;2022-08-19T01:22:16;24.10;;;13.07;;
71777;SDS011;59609;52.430;4.668;2022-08-19T01:24:48;21.15;;;12.65;;
71777;SDS011;59609;52.430;4.668;2022-08-19T01:27:14;19.58;;;12.07;;
71777;SDS011;59609;52.430;4.668;2022-08-19T01:29:41;21.67;;;12.93;;
71777;SDS011;59609;52.430;4.668;2022-08-19T01:32:12;20.40;;;12.05;;
71777;SDS011;59609;52.430;4.668;2022-08-19T01:34:40;18.92;;;11.45;;
71777;SDS011;59609;52.430;4.668;2022-08-19T01:37:10;20.60;;;11.77;;
71777;SDS011;59609;52.430;4.668;2022-08-19T01:39:37;20.40;;;11.13;;
71777;SDS011;59609;52.430;4.668;2022-08-19T01:42:04;22.13;;;12.00;;
71777;SDS011;59609;52.430;4.668;2022-08-19T01:44:32;20.85;;;10.90;;
71777;SDS011;59609;52.430;4.668;2022-08-19T01:46:57;23.33;;;10.82;;
71777;SDS011;59609;52.430;4.668;2022-08-19T01:49:23;15.55;;;10.05;;
71777;SDS011;59609;52.430;4.668;2022-08-19T01:51:52;17.23;;;10.65;;
71777;SDS011;59609;52.430;4.668;2022-08-19T01:54:19;13.85;;;9.27;;
71777;SDS011;59609;52.430;4.668;2022-08-19T01:56:45;17.20;;;10.25;;
71777;SDS011;59609;52.430;4.668;2022-08-19T01:59:15;15.55;;;10.15;;
71777;SDS011;59609;52.430;4.668;2022-08-19T02:01:43;19.02;;;9.25;;
71777;SDS011;59609;52.430;4.668;2022-08-19T02:04:09;20.48;;;10.63;;
71777;SDS011;59609;52.430;4.668;2022-08-19T02:06:34;17.05;;;10.73;;
71777;SDS011;59609;52.430;4.668;2022-08-19T02:09:00;20.65;;;11.05;;
71777;SDS011;59609;52.430;4.668;2022-08-19T02:11:27;19.05;;;11.07;;
71777;SDS011;59609;52.430;4.668;2022-08-19T02:13:56;18.67;;;12.27;;
71777;SDS011;59609;52.430;4.668;2022-08-19T02:16:23;20.33;;;10.68;;
71777;SDS011;59609;52.430;4.668;2022-08-19T02:18:49;23.92;;;11.00;;
71777;SDS011;59609;52.430;4.668;2022-08-19T02:21:18;18.73;;;10.50;;
71777;SDS011;59609;52.430;4.668;2022-08-19T02:23:46;17.35;;;9.88;;
71777;SDS011;59609;52.430;4.668;2022-08-19T02:26:12;18.98;;;9.77;;
71777;SDS011;59609;52.430;4.668;2022-08-19T02:28:37;17.40;;;9.57;;
71777;SDS011;59609;52.430;4.668;2022-08-19T02:31:08;16.25;;;9.48;;
71777;SDS011;59609;52.430;4.668;2022-08-19T02:33:41;12.88;;;8.40;;
71777;SDS011;59609;52.430;4.668;2022-08-19T02:36:07;15.68;;;9.23;;
71777;SDS011;59609;52.430;4.668;2022-08-19T02:38:33;15.27;;;8.95;;
71777;SDS011;59609;52.430;4.668;2022-08-19T02:41:04;14.32;;;8.75;;
71777;SDS011;59609;52.430;4.668;2022-08-19T02:43:43;12.73;;;7.93;;
71777;SDS011;59609;52.430;4.668;2022-08-19T02:51:03;14.87;;;8.13;;
71777;SDS011;59609;52.430;4.668;2022-08-19T02:53:28;14.45;;;8.27;;
71777;SDS011;59609;52.430;4.668;2022-08-19T02:55:54;14.43;;;9.02;;
71777;SDS011;59609;52.430;4.668;2022-08-19T02:58:20;14.80;;;9.15;;
71777;SDS011;59609;52.430;4.668;2022-08-19T03:00:48;18.05;;;10.07;;
71777;SDS011;59609;52.430;4.668;2022-08-19T03:03:16;17.77;;;9.52;;
71777;SDS011;59609;52.430;4.668;2022-08-19T03:05:42;15.20;;;8.55;;
71777;SDS011;59609;52.430;4.668;2022-08-19T03:08:08;14.85;;;8.82;;
71777;SDS011;59609;52.430;4.668;2022-08-19T03:10:55;19.33;;;9.65;;
71777;SDS011;59609;52.430;4.668;2022-08-19T03:13:20;18.27;;;9.43;;
71777;SDS011;59609;52.430;4.668;2022-08-19T03:15:46;15.20;;;9.60;;
71777;SDS011;59609;52.430;4.668;2022-08-19T03:18:14;15.85;;;9.48;;
71777;SDS011;59609;52.430;4.668;2022-08-19T03:20:41;18.23;;;10.63;;
71777;SDS011;59609;52.430;4.668;2022-08-19T03:23:08;14.88;;;10.00;;
71777;SDS011;59609;52.430;4.668;2022-08-19T03:25:38;19.13;;;10.75;;
71777;SDS011;59609;52.430;4.668;2022-08-19T03:28:07;15.63;;;10.48;;
71777;SDS011;59609;52.430;4.668;2022-08-19T03:30:33;19.63;;;11.02;;
71777;SDS011;59609;52.430;4.668;2022-08-19T03:32:58;20.52;;;11.13;;
71777;SDS011;59609;52.430;4.668;2022-08-19T03:35:24;21.92;;;11.77;;
71777;SDS011;59609;52.430;4.668;2022-08-19T03:37:49;24.55;;;13.35;;
71777;SDS011;59609;52.430;4.668;2022-08-19T03:40:15;26.35;;;13.52;;
71777;SDS011;59609;52.430;4.668;2022-08-19T03:42:41;24.77;;;13.68;;
71777;SDS011;59609;52.430;4.668;2022-08-19T03:45:07;23.88;;;14.13;;
71777;SDS011;59609;52.430;4.668;2022-08-19T03:47:33;26.10;;;14.02;;
71777;SDS011;59609;52.430;4.668;2022-08-19T03:49:58;28.45;;;15.68;;
71777;SDS011;59609;52.430;4.668;2022-08-19T03:52:24;31.45;;;17.73;;
71777;SDS011;59609;52.430;4.668;2022-08-19T03:54:49;37.13;;;17.30;;
71777;SDS011;59609;52.430;4.668;2022-08-19T03:57:14;36.80;;;17.98;;
71777;SDS011;59609;52.430;4.668;2022-08-19T03:59:40;37.47;;;18.73;;
71777;SDS011;59609;52.430;4.668;2022-08-19T04:02:08;37.78;;;19.73;;
71777;SDS011;59609;52.430;4.668;2022-08-19T04:04:36;43.17;;;20.52;;
71777;SDS011;59609;52.430;4.668;2022-08-19T04:07:03;44.28;;;22.00;;
71777;SDS011;59609;52.430;4.668;2022-08-19T04:09:28;40.45;;;20.70;;
71777;SDS011;59609;52.430;4.668;2022-08-19T04:11:54;44.83;;;20.17;;
71777;SDS011;59609;52.430;4.668;2022-08-19T04:14:23;48.22;;;20.95;;
71777;SDS011;59609;52.430;4.668;2022-08-19T04:16:50;44.03;;;19.77;;
71777;SDS011;59609;52.430;4.668;2022-08-19T04:19:17;41.83;;;19.05;;
71777;SDS011;59609;52.430;4.668;2022-08-19T04:21:45;40.90;;;18.85;;
71777;SDS011;59609;52.430;4.668;2022-08-19T04:24:12;39.00;;;19.05;;
71777;SDS011;59609;52.430;4.668;2022-08-19T04:26:38;42.47;;;18.73;;
71777;SDS011;59609;52.430;4.668;2022-08-19T04:29:05;39.13;;;18.63;;
71777;SDS011;59609;52.430;4.668;2022-08-19T04:31:39;36.03;;;18.30;;
71777;SDS011;59609;52.430;4.668;2022-08-19T04:34:07;38.95;;;18.15;;
71777;SDS011;59609;52.430;4.668;2022-08-19T04:36:35;43.28;;;19.27;;
71777;SDS011;59609;52.430;4.668;2022-08-19T04:39:04;42.50;;;19.80;;
71777;SDS011;59609;52.430;4.668;2022-08-19T04:41:32;46.25;;;19.83;;
71777;SDS011;59609;52.430;4.668;2022-08-19T04:44:16;40.25;;;18.73;;
71777;SDS011;59609;52.430;4.668;2022-08-19T04:46:43;42.15;;;18.50;;
71777;SDS011;59609;52.430;4.668;2022-08-19T04:49:09;45.42;;;19.15;;
71777;SDS011;59609;52.430;4.668;2022-08-19T04:51:34;44.28;;;18.65;;
71777;SDS011;59609;52.430;4.668;2022-08-19T04:54:01;42.17;;;18.55;;
71777;SDS011;59609;52.430;4.668;2022-08-19T04:56:27;42.80;;;18.70;;
71777;SDS011;59609;52.430;4.668;2022-08-19T04:58:54;41.47;;;18.63;;
71777;SDS011;59609;52.430;4.668;2022-08-19T05:01:22;38.65;;;17.75;;
71777;SDS011;59609;52.430;4.668;2022-08-19T05:03:49;42.28;;;18.35;;
71777;SDS011;59609;52.430;4.668;2022-08-19T05:06:15;40.35;;;18.50;;
71777;SDS011;59609;52.430;4.668;2022-08-19T05:08:43;41.70;;;19.92;;
71777;SDS011;59609;52.430;4.668;2022-08-19T05:11:10;43.47;;;19.27;;
71777;SDS011;59609;52.430;4.668;2022-08-19T05:13:37;41.60;;;17.05;;
71777;SDS011;59609;52.430;4.668;2022-08-19T05:16:03;37.22;;;17.27;;
71777;SDS011;59609;52.430;4.668;2022-08-19T05:18:29;38.95;;;17.38;;
71777;SDS011;59609;52.430;4.668;2022-08-19T05:21:14;38.50;;;17.35;;
71777;SDS011;59609;52.430;4.668;2022-08-19T05:24:02;38.90;;;18.38;;
71777;SDS011;59609;52.430;4.668;2022-08-19T05:26:28;36.85;;;17.40;;
71777;SDS011;59609;52.430;4.668;2022-08-19T05:28:54;40.50;;;18.67;;
71777;SDS011;59609;52.430;4.668;2022-08-19T05:31:20;38.65;;;17.65;;
71777;SDS011;59609;52.430;4.668;2022-08-19T05:33:46;44.40;;;19.35;;
71777;SDS011;59609;52.430;4.668;2022-08-19T05:36:12;40.28;;;17.45;;
71777;SDS011;59609;52.430;4.668;2022-08-19T05:38:39;39.03;;;19.00;;
71777;SDS011;59609;52.430;4.668;2022-08-19T05:41:11;45.05;;;18.65;;
71777;SDS011;59609;52.430;4.668;2022-08-19T05:46:05;43.55;;;17.45;;
71777;SDS011;59609;52.430;4.668;2022-08-19T05:48:31;40.60;;;18.92;;
71777;SDS011;59609;52.430;4.668;2022-08-19T05:50:57;42.47;;;19.08;;
71777;SDS011;59609;52.430;4.668;2022-08-19T05:53:24;40.53;;;19.08;;
71777;SDS011;59609;52.430;4.668;2022-08-19T05:55:50;42.13;;;19.38;;
71777;SDS011;59609;52.430;4.668;2022-08-19T05:58:15;42.95;;;20.38;;
71777;SDS011;59609;52.430;4.668;2022-08-19T06:00:42;48.15;;;20.88;;
71777;SDS011;59609;52.430;4.668;2022-08-19T06:03:09;50.67;;;20.42;;
71777;SDS011;59609;52.430;4.668;2022-08-19T06:05:35;46.85;;;19.60;;
71777;SDS011;59609;52.430;4.668;2022-08-19T06:08:00;48.95;;;21.80;;
71777;SDS011;59609;52.430;4.668;2022-08-19T06:10:26;49.08;;;20.80;;
71777;SDS011;59609;52.430;4.668;2022-08-19T06:12:52;43.95;;;20.73;;
71777;SDS011;59609;52.430;4.668;2022-08-19T06:15:18;50.17;;;21.20;;
71777;SDS011;59609;52.430;4.668;2022-08-19T06:17:43;50.33;;;21.25;;
71777;SDS011;59609;52.430;4.668;2022-08-19T06:20:13;48.97;;;21.25;;
71777;SDS011;59609;52.430;4.668;2022-08-19T06:22:44;44.60;;;21.13;;
71777;SDS011;59609;52.430;4.668;2022-08-19T06:25:11;47.15;;;20.55;;
71777;SDS011;59609;52.430;4.668;2022-08-19T06:27:39;54.00;;;22.58;;
71777;SDS011;59609;52.430;4.668;2022-08-19T06:30:05;43.17;;;21.65;;
71777;SDS011;59609;52.430;4.668;2022-08-19T06:32:31;42.17;;;20.23;;
71777;SDS011;59609;52.430;4.668;2022-08-19T06:34:56;46.80;;;20.55;;
71777;SDS011;59609;52.430;4.668;2022-08-19T06:37:23;46.55;;;21.95;;
71777;SDS011;59609;52.430;4.668;2022-08-19T06:39:48;45.17;;;19.48;;
71777;SDS011;59609;52.430;4.668;2022-08-19T06:42:14;41.42;;;19.70;;
71777;SDS011;59609;52.430;4.668;2022-08-19T06:44:44;38.55;;;19.48;;
71777;SDS011;59609;52.430;4.668;2022-08-19T06:47:15;43.05;;;20.33;;
71777;SDS011;59609;52.430;4.668;2022-08-19T06:49:43;44.08;;;19.55;;
71777;SDS011;59609;52.430;4.668;2022-08-19T06:52:09;49.58;;;19.30;;
71777;SDS011;59609;52.430;4.668;2022-08-19T06:54:39;45.70;;;18.67;;
71777;SDS011;59609;52.430;4.668;2022-08-19T06:57:06;38.13;;;18.63;;
71777;SDS011;59609;52.430;4.668;2022-08-19T06:59:34;39.17;;;19.55;;
71777;SDS011;59609;52.430;4.668;2022-08-19T07:02:01;40.55;;;18.08;;
71777;SDS011;59609;52.430;4.668;2022-08-19T07:04:30;41.83;;;18.33;;
71777;SDS011;59609;52.430;4.668;2022-08-19T07:07:01;33.75;;;17.63;;
71777;SDS011;59609;52.430;4.668;2022-08-19T07:09:33;37.38;;;18.15;;
71777;SDS011;59609;52.430;4.668;2022-08-19T07:12:02;37.72;;;17.27;;
71777;SDS011;59609;52.430;4.668;2022-08-19T07:14:28;36.60;;;15.95;;
71777;SDS011;59609;52.430;4.668;2022-08-19T07:16:55;35.38;;;15.10;;
71777;SDS011;59609;52.430;4.668;2022-08-19T07:19:23;29.92;;;13.30;;
71777;SDS011;59609;52.430;4.668;2022-08-19T07:21:52;26.85;;;13.60;;
71777;SDS011;59609;52.430;4.668;2022-08-19T07:24:22;27.85;;;13.43;;
71777;SDS011;59609;52.430;4.668;2022-08-19T07:26:50;19.42;;;9.73;;
71777;SDS011;59609;52.430;4.668;2022-08-19T07:29:17;28.08;;;10.40;;
71777;SDS011;59609;52.430;4.668;2022-08-19T07:31:44;20.33;;;10.10;;
71777;SDS011;59609;52.430;4.668;2022-08-19T07:34:11;20.02;;;8.15;;
71777;SDS011;59609;52.430;4.668;2022-08-19T07:36:38;14.43;;;7.88;;
71777;SDS011;59609;52.430;4.668;2022-08-19T07:39:07;12.40;;;6.22;;
71777;SDS011;59609;52.430;4.668;2022-08-19T07:41:35;19.33;;;6.57;;
71777;SDS011;59609;52.430;4.668;2022-08-19T07:44:02;12.20;;;6.85;;
71777;SDS011;59609;52.430;4.668;2022-08-19T07:46:33;12.57;;;5.68;;
71777;SDS011;59609;52.430;4.668;2022-08-19T07:49:00;14.88;;;6.28;;
71777;SDS011;59609;52.430;4.668;2022-08-19T07:51:27;14.73;;;5.97;;
71777;SDS011;59609;52.430;4.668;2022-08-19T07:53:53;10.48;;;5.70;;
71777;SDS011;59609;52.430;4.668;2022-08-19T07:56:19;13.30;;;6.45;;
71777;SDS011;59609;52.430;4.668;2022-08-19T07:58:46;11.35;;;6.10;;
71777;SDS011;59609;52.430;4.668;2022-08-19T08:01:15;10.85;;;5.35;;
71777;SDS011;59609;52.430;4.668;2022-08-19T08:03:42;11.10;;;5.80;;
71777;SDS011;59609;52.430;4.668;2022-08-19T08:06:26;14.93;;;6.00;;
71777;SDS011;59609;52.430;4.668;2022-08-19T08:09:11;8.75;;;4.80;;
71777;SDS011;59609;52.430;4.668;2022-08-19T08:11:38;10.25;;;5.63;;
71777;SDS011;59609;52.430;4.668;2022-08-19T08:14:06;12.35;;;6.38;;
71777;SDS011;59609;52.430;4.668;2022-08-19T08:16:37;11.82;;;6.25;;
71777;SDS011;59609;52.430;4.668;2022-08-19T08:19:06;8.82;;;5.15;;
71777;SDS011;59609;52.430;4.668;2022-08-19T08:21:32;11.20;;;5.75;;
71777;SDS011;59609;52.430;4.668;2022-08-19T08:23:58;5.95;;;4.93;;
71777;SDS011;59609;52.430;4.668;2022-08-19T09:29:12;9.00;;;5.53;;
71777;SDS011;59609;52.430;4.668;2022-08-19T09:31:38;10.40;;;4.40;;
71777;SDS011;59609;52.430;4.668;2022-08-19T09:34:03;10.40;;;4.90;;
71777;SDS011;59609;52.430;4.668;2022-08-19T09:36:29;8.98;;;4.38;;
71777;SDS011;59609;52.430;4.668;2022-08-19T09:38:58;9.55;;;5.00;;
71777;SDS011;59609;52.430;4.668;2022-08-19T09:41:25;12.45;;;4.82;;
71777;SDS011;59609;52.430;4.668;2022-08-19T09:43:52;12.25;;;4.25;;
71777;SDS011;59609;52.430;4.668;2022-08-19T09:48:46;9.30;;;3.70;;
71777;SDS011;59609;52.430;4.668;2022-08-19T09:51:13;6.50;;;3.92;;
71777;SDS011;59609;52.430;4.668;2022-08-19T09:56:06;7.90;;;4.05;;
71777;SDS011;59609;52.430;4.668;2022-08-19T09:58:33;9.02;;;4.47;;
71777;SDS011;59609;52.430;4.668;2022-08-19T10:01:00;8.50;;;4.10;;
71777;SDS011;59609;52.430;4.668;2022-08-19T10:03:27;9.27;;;3.75;;
71777;SDS011;59609;52.430;4.668;2022-08-19T10:05:54;8.82;;;3.92;;
71777;SDS011;59609;52.430;4.668;2022-08-19T10:08:22;5.43;;;3.72;;
71777;SDS011;59609;52.430;4.668;2022-08-19T10:10:53;4.22;;;3.20;;
71777;SDS011;59609;52.430;4.668;2022-08-19T10:13:21;8.27;;;3.47;;
71777;SDS011;59609;52.430;4.668;2022-08-19T10:15:50;10.05;;;3.75;;
71777;SDS011;59609;52.430;4.668;2022-08-19T10:18:17;7.00;;;3.20;;
71777;SDS011;59609;52.430;4.668;2022-08-19T10:20:44;6.95;;;3.50;;
71777;SDS011;59609;52.430;4.668;2022-08-19T10:23:11;7.78;;;3.78;;
71777;SDS011;59609;52.430;4.668;2022-08-19T10:25:37;5.30;;;3.42;;
71777;SDS011;59609;52.430;4.668;2022-08-19T10:28:02;5.50;;;3.03;;
71777;SDS011;59609;52.430;4.668;2022-08-19T10:30:29;5.55;;;3.35;;
71777;SDS011;59609;52.430;4.668;2022-08-19T10:32:54;7.65;;;3.17;;
71777;SDS011;59609;52.430;4.668;2022-08-19T10:35:20;6.47;;;3.20;;
71777;SDS011;59609;52.430;4.668;2022-08-19T10:37:45;4.80;;;3.08;;
71777;SDS011;59609;52.430;4.668;2022-08-19T10:40:10;4.72;;;3.00;;
71777;SDS011;59609;52.430;4.668;2022-08-19T10:42:36;6.30;;;3.13;;
71777;SDS011;59609;52.430;4.668;2022-08-19T10:45:02;4.68;;;3.05;;
71777;SDS011;59609;52.430;4.668;2022-08-19T10:47:28;4.43;;;3.33;;
71777;SDS011;59609;52.430;4.668;2022-08-19T10:49:54;7.90;;;3.70;;
71777;SDS011;59609;52.430;4.668;2022-08-19T10:52:39;5.28;;;3.50;;
71777;SDS011;59609;52.430;4.668;2022-08-19T10:55:07;9.27;;;3.78;;
71777;SDS011;59609;52.430;4.668;2022-08-19T10:57:51;9.05;;;3.35;;
71777;SDS011;59609;52.430;4.668;2022-08-19T11:00:21;7.95;;;4.03;;
71777;SDS011;59609;52.430;4.668;2022-08-19T11:02:48;9.18;;;3.97;;
71777;SDS011;59609;52.430;4.668;2022-08-19T11:05:14;11.00;;;3.53;;
71777;SDS011;59609;52.430;4.668;2022-08-19T11:07:40;6.63;;;3.40;;
71777;SDS011;59609;52.430;4.668;2022-08-19T11:10:06;5.65;;;2.92;;
71777;SDS011;59609;52.430;4.668;2022-08-19T11:12:32;4.20;;;3.40;;
71777;SDS011;59609;52.430;4.668;2022-08-19T11:14:58;4.82;;;3.00;;
71777;SDS011;59609;52.430;4.668;2022-08-19T11:17:23;8.60;;;3.35;;
71777;SDS011;59609;52.430;4.668;2022-08-19T11:19:49;5.78;;;3.42;;
71777;SDS011;59609;52.430;4.668;2022-08-19T11:22:15;4.53;;;3.40;;
71777;SDS011;59609;52.430;4.668;2022-08-19T11:24:40;5.95;;;3.35;;
71777;SDS011;59609;52.430;4.668;2022-08-19T11:27:07;5.22;;;3.08;;
71777;SDS011;59609;52.430;4.668;2022-08-19T11:29:34;5.13;;;3.30;;
71777;SDS011;59609;52.430;4.668;2022-08-19T11:32:03;2.85;;;2.55;;
71777;SDS011;59609;52.430;4.668;2022-08-19T11:34:30;4.38;;;2.88;;
71777;SDS011;59609;52.430;4.668;2022-08-19T11:36:56;5.57;;;2.42;;
71777;SDS011;59609;52.430;4.668;2022-08-19T11:39:26;7.13;;;3.00;;
71777;SDS011;59609;52.430;4.668;2022-08-19T11:41:53;4.60;;;2.72;;
71777;SDS011;59609;52.430;4.668;2022-08-19T11:44:18;3.30;;;2.38;;
71777;SDS011;59609;52.430;4.668;2022-08-19T11:46:44;6.93;;;3.03;;
71777;SDS011;59609;52.430;4.668;2022-08-19T11:49:11;4.25;;;2.85;;
71777;SDS011;59609;52.430;4.668;2022-08-19T11:51:46;3.00;;;2.70;;
71777;SDS011;59609;52.430;4.668;2022-08-19T11:54:13;5.03;;;3.40;;
71777;SDS011;59609;52.430;4.668;2022-08-19T11:56:41;5.20;;;2.83;;
71777;SDS011;59609;52.430;4.668;2022-08-19T11:59:07;3.67;;;2.50;;
71777;SDS011;59609;52.430;4.668;2022-08-19T12:01:33;3.53;;;2.42;;
71777;SDS011;59609;52.430;4.668;2022-08-19T12:03:59;2.83;;;2.35;;
71777;SDS011;59609;52.430;4.668;2022-08-19T12:06:25;4.88;;;2.60;;
71777;SDS011;59609;52.430;4.668;2022-08-19T12:08:57;5.32;;;2.55;;
71777;SDS011;59609;52.430;4.668;2022-08-19T12:11:25;3.53;;;2.63;;
71777;SDS011;59609;52.430;4.668;2022-08-19T12:13:51;2.65;;;2.40;;
71777;SDS011;59609;52.430;4.668;2022-08-19T12:16:21;6.00;;;2.40;;
71777;SDS011;59609;52.430;4.668;2022-08-19T12:18:51;3.80;;;2.28;;
71777;SDS011;59609;52.430;4.668;2022-08-19T12:21:22;3.05;;;2.45;;
71777;SDS011;59609;52.430;4.668;2022-08-19T12:23:50;3.83;;;2.28;;
71777;SDS011;59609;52.430;4.668;2022-08-19T12:26:16;3.63;;;2.63;;
71777;SDS011;59609;52.430;4.668;2022-08-19T12:28:43;4.18;;;2.50;;
71777;SDS011;59609;52.430;4.668;2022-08-19T12:31:09;2.53;;;2.33;;
71777;SDS011;59609;52.430;4.668;2022-08-19T12:33:37;2.47;;;2.20;;
71777;SDS011;59609;52.430;4.668;2022-08-19T12:36:04;5.68;;;2.30;;
71777;SDS011;59609;52.430;4.668;2022-08-19T12:38:31;3.38;;;2.10;;
71777;SDS011;59609;52.430;4.668;2022-08-19T12:40:57;3.45;;;2.20;;
71777;SDS011;59609;52.430;4.668;2022-08-19T12:43:22;3.40;;;2.05;;
71777;SDS011;59609;52.430;4.668;2022-08-19T12:45:48;4.00;;;2.13;;
71777;SDS011;59609;52.430;4.668;2022-08-19T12:48:13;3.25;;;2.30;;
71777;SDS011;59609;52.430;4.668;2022-08-19T12:50:43;4.82;;;1.95;;
71777;SDS011;59609;52.430;4.668;2022-08-19T12:53:12;2.67;;;1.67;;
71777;SDS011;59609;52.430;4.668;2022-08-19T12:55:38;4.75;;;1.83;;
71777;SDS011;59609;52.430;4.668;2022-08-19T12:58:03;3.20;;;2.20;;
71777;SDS011;59609;52.430;4.668;2022-08-19T13:00:29;3.42;;;1.92;;
71777;SDS011;59609;52.430;4.668;2022-08-19T13:02:55;5.40;;;1.98;;
71777;SDS011;59609;52.430;4.668;2022-08-19T13:05:24;6.22;;;2.28;;
71777;SDS011;59609;52.430;4.668;2022-08-19T13:07:55;4.47;;;2.00;;
71777;SDS011;59609;52.430;4.668;2022-08-19T13:10:23;2.45;;;1.90;;
71777;SDS011;59609;52.430;4.668;2022-08-19T13:12:52;2.47;;;2.28;;
71777;SDS011;59609;52.430;4.668;2022-08-19T13:15:19;3.47;;;2.35;;
71777;SDS011;59609;52.430;4.668;2022-08-19T13:17:46;4.22;;;2.10;;
71777;SDS011;59609;52.430;4.668;2022-08-19T13:22:39;2.33;;;1.65;;
71777;SDS011;59609;52.430;4.668;2022-08-19T13:25:05;2.95;;;1.90;;
71777;SDS011;59609;52.430;4.668;2022-08-19T13:27:31;2.90;;;1.88;;
71777;SDS011;59609;52.430;4.668;2022-08-19T13:29:57;3.13;;;1.70;;
71777;SDS011;59609;52.430;4.668;2022-08-19T13:35:27;3.35;;;1.88;;
71777;SDS011;59609;52.430;4.668;2022-08-19T13:37:52;3.22;;;1.95;;
71777;SDS011;59609;52.430;4.668;2022-08-19T13:40:19;3.13;;;1.60;;
71777;SDS011;59609;52.430;4.668;2022-08-19T13:42:48;2.13;;;1.70;;
71777;SDS011;59609;52.430;4.668;2022-08-19T13:45:16;2.85;;;1.98;;
71777;SDS011;59609;52.430;4.668;2022-08-19T13:47:48;2.08;;;1.88;;
71777;SDS011;59609;52.430;4.668;2022-08-19T13:50:16;3.03;;;2.10;;
71777;SDS011;59609;52.430;4.668;2022-08-19T13:52:43;2.10;;;1.85;;
71777;SDS011;59609;52.430;4.668;2022-08-19T13:55:09;2.55;;;2.30;;
71777;SDS011;59609;52.430;4.668;2022-08-19T13:57:36;2.70;;;1.90;;
71777;SDS011;59609;52.430;4.668;2022-08-19T14:00:04;3.50;;;2.03;;
71777;SDS011;59609;52.430;4.668;2022-08-19T14:02:34;2.92;;;2.42;;
71777;SDS011;59609;52.430;4.668;2022-08-19T14:04:59;4.05;;;2.33;;
71777;SDS011;59609;52.430;4.668;2022-08-19T14:07:25;2.63;;;1.87;;
71777;SDS011;59609;52.430;4.668;2022-08-19T14:09:50;2.45;;;2.03;;
71777;SDS011;59609;52.430;4.668;2022-08-19T14:12:18;5.97;;;2.13;;
71777;SDS011;59609;52.430;4.668;2022-08-19T14:14:45;5.55;;;2.72;;
71777;SDS011;59609;52.430;4.668;2022-08-19T14:17:11;4.05;;;2.08;;
71777;SDS011;59609;52.430;4.668;2022-08-19T14:19:36;2.15;;;1.90;;
71777;SDS011;59609;52.430;4.668;2022-08-19T14:22:01;4.22;;;2.33;;
71777;SDS011;59609;52.430;4.668;2022-08-19T14:24:27;3.08;;;2.30;;
71777;SDS011;59609;52.430;4.668;2022-08-19T14:26:52;8.18;;;2.67;;
71777;SDS011;59609;52.430;4.668;2022-08-19T14:29:17;2.60;;;2.40;;
71777;SDS011;59609;52.430;4.668;2022-08-19T14:31:43;3.88;;;2.20;;
71777;SDS011;59609;52.430;4.668;2022-08-19T14:34:09;5.28;;;2.35;;
71777;SDS011;59609;52.430;4.668;2022-08-19T14:36:35;3.80;;;2.28;;
71777;SDS011;59609;52.430;4.668;2022-08-19T14:39:01;2.65;;;2.20;;
71777;SDS011;59609;52.430;4.668;2022-08-19T14:41:27;5.93;;;2.60;;
71777;SDS011;59609;52.430;4.668;2022-08-19T14:43:53;2.90;;;1.73;;
71777;SDS011;59609;52.430;4.668;2022-08-19T14:46:20;1.90;;;1.80;;
71777;SDS011;59609;52.430;4.668;2022-08-19T14:48:47;2.30;;;2.03;;
71777;SDS011;59609;52.430;4.668;2022-08-19T14:51:14;3.90;;;2.13;;
71777;SDS011;59609;52.430;4.668;2022-08-19T14:53:39;2.33;;;2.13;;
71777;SDS011;59609;52.430;4.668;2022-08-19T14:56:09;2.80;;;1.85;;
71777;SDS011;59609;52.430;4.668;2022-08-19T14:58:37;2.70;;;1.70;;
71777;SDS011;59609;52.430;4.668;2022-08-19T15:01:03;3.00;;;1.77;;
71777;SDS011;59609;52.430;4.668;2022-08-19T15:03:29;2.08;;;1.70;;
71777;SDS011;59609;52.430;4.668;2022-08-19T15:05:54;2.85;;;2.00;;
71777;SDS011;59609;52.430;4.668;2022-08-19T15:08:22;3.42;;;2.05;;
71777;SDS011;59609;52.430;4.668;2022-08-19T15:10:49;2.55;;;1.83;;
71777;SDS011;59609;52.430;4.668;2022-08-19T15:13:15;2.75;;;1.52;;
71777;SDS011;59609;52.430;4.668;2022-08-19T15:15:40;2.85;;;1.98;;
71777;SDS011;59609;52.430;4.668;2022-08-19T15:18:06;1.75;;;1.65;;
71777;SDS011;59609;52.430;4.668;2022-08-19T15:20:31;2.25;;;1.42;;
71777;SDS011;59609;52.430;4.668;2022-08-19T15:22:56;2.30;;;1.60;;
71777;SDS011;59609;52.430;4.668;2022-08-19T15:25:23;1.65;;;1.35;;
71777;SDS011;59609;52.430;4.668;2022-08-19T15:27:49;1.60;;;1.50;;
71777;SDS011;59609;52.430;4.668;2022-08-19T15:30:19;1.67;;;1.58;;
71777;SDS011;59609;52.430;4.668;2022-08-19T15:32:47;1.60;;;1.50;;
71777;SDS011;59609;52.430;4.668;2022-08-19T15:35:12;2.10;;;1.30;;
71777;SDS011;59609;52.430;4.668;2022-08-19T15:37:38;2.10;;;1.73;;
71777;SDS011;59609;52.430;4.668;2022-08-19T15:40:04;3.88;;;1.65;;
71777;SDS011;59609;52.430;4.668;2022-08-19T15:42:34;1.98;;;1.60;;
71777;SDS011;59609;52.430;4.668;2022-08-19T15:47:27;2.90;;;1.60;;
71777;SDS011;59609;52.430;4.668;2022-08-19T15:49:53;1.50;;;1.40;;
71777;SDS011;59609;52.430;4.668;2022-08-19T15:52:19;1.50;;;1.40;;
71777;SDS011;59609;52.430;4.668;2022-08-19T15:54:45;1.60;;;1.52;;
71777;SDS011;59609;52.430;4.668;2022-08-19T15:57:10;2.60;;;1.65;;
71777;SDS011;59609;52.430;4.668;2022-08-19T15:59:50;2.28;;;1.55;;
71777;SDS011;59609;52.430;4.668;2022-08-19T16:02:34;2.45;;;1.45;;